Accueil
METAR-TAF:

METAR-TAF

Aéroports :

Platinum, Alaska, États-Unis

latitude: 59-01N, longitude: 161-49W, altitude: 3 m

Observation

Le bulletin a été fait il y a 46 minutes, à 21:56 UTC
Vent 8 kt de nord-est
Température -12°C
Humidité 92%
Pression 1013 hPa
Visibilité: 16.1 km
Ciel couvert à une hauteur de 1300 ft

METAR: PAPM 222156Z AUTO 05008KT 10SM OVC013 M12/M13 A2990 RMK AO2 SLP126 T11171128 FZRANO

Heure: 13:42 (22:42 UTC)


TAF: absent

Observations et prévisions météorologiques de plus de 4000 aéroports (messages METAR et TAF).

Les stations disponibles sont représentées par des disques jaunes et rouges sur la carte.

Passer la souris dessus pour voir le nom de la station.

Cliquer dessus pour voir les observations et prévisions météorologiques.

Pour changer de carte: cliquez sur les boutons verts avec une croix noire pour zoomer, sur le bouton vert avec un tiret pour effectuer un zoom arrière, ou sur les flèches vertes pour les cartes adjacentes.


METAR-TAF: